Archer, Idaho
Current Conditions -  °F | °C
As of 3:53 PM on Saturday 25 Oct 2014 (Local Time) from KRXE Reporting Station
Clear Clear  
Wind Chill: 71°   Ceiling: Unl
Heat Index: 71°   Visibility: 10mi
Dew Point: 30°   Wind: 15mph
Humidity: 22%   Direction: 230°SW
Pressure: 29.9"   Gusts: 26mph
Location:  43.7568°N, 111.624°W
Report Text: KRXE 252153Z AUTO 23013G23KT 10SM CLR 22/M01 A2990 RMK AO2 PK WND 23027/2119 SLP104 T02171011
Loading
Personal Weather Stations






























Interactive Weather Map
Tropical Storm Tracking
New forecast layout! Learn more

10-Day Weather Forecast

Advertisements
Track Severe Weather on mobile